Time;durP1;ratioP1;P1;durP2;ratioP2;P2;SDS_P1;SDS_P2;PMS_P1;PMS_P2;Temp;Humidity;BMP_temperature;BMP_pressure;BME280_temperature;BME280_humidity;BME280_pressure;Samples;Min_cycle;Max_cycle;Signal;HPM_P1;HPM_P2
2023/12/25 00:01:15;;;;;;;0.70;0.70;;;14.00;39.50;;;;;;10451904;28;20237;-76
2023/12/25 00:06:18;;;;;;;0.97;0.83;;;14.00;39.50;;;;;;10451042;28;20241;-76
2023/12/25 00:11:22;;;;;;;0.80;0.80;;;14.00;40.00;;;;;;10451664;28;20280;-76
2023/12/25 00:16:27;;;;;;;1.23;0.80;;;14.00;39.90;;;;;;10451061;28;20287;-77
2023/12/25 00:21:30;;;;;;;1.03;0.90;;;14.00;39.20;;;;;;10450688;28;20225;-77
2023/12/25 00:26:33;;;;;;;0.80;0.80;;;14.00;39.50;;;;;;10450619;28;20239;-77
2023/12/25 00:31:38;;;;;;;0.80;0.80;;;14.00;39.40;;;;;;10450397;28;20228;-77
2023/12/25 00:36:43;;;;;;;0.80;0.80;;;14.00;38.90;;;;;;10450103;28;20240;-77
2023/12/25 00:41:47;;;;;;;0.90;0.90;;;14.00;38.50;;;;;;10450339;28;20229;-76
2023/12/25 00:46:51;;;;;;;0.80;0.63;;;14.10;39.10;;;;;;10449813;28;20316;-77
2023/12/25 00:51:54;;;;;;;0.70;0.70;;;14.10;38.50;;;;;;10450159;28;20239;-76
2023/12/25 00:56:58;;;;;;;0.60;0.60;;;14.10;38.70;;;;;;10449168;28;20232;-76
2023/12/25 01:02:03;;;;;;;0.70;0.70;;;14.10;38.40;;;;;;10448963;28;20727;-77
2023/12/25 01:07:06;;;;;;;0.60;0.60;;;14.10;37.80;;;;;;10449136;28;20302;-76
2023/12/25 01:12:10;;;;;;;0.80;0.80;;;14.10;38.30;;;;;;10449173;28;20251;-76
2023/12/25 01:17:15;;;;;;;0.60;0.60;;;14.10;38.00;;;;;;10448690;28;20251;-76
2023/12/25 01:22:19;;;;;;;0.80;0.80;;;14.10;37.50;;;;;;10449310;28;20247;-76
2023/12/25 01:27:22;;;;;;;0.80;0.80;;;14.10;37.60;;;;;;10448756;28;20299;-77
2023/12/25 01:32:26;;;;;;;0.70;0.70;;;14.10;37.50;;;;;;10448586;28;20611;-77
2023/12/25 01:37:30;;;;;;;0.60;0.60;;;14.10;37.50;;;;;;10448334;28;20727;-76
2023/12/25 01:42:33;;;;;;;0.60;0.60;;;14.10;37.60;;;;;;10448664;28;20229;-76
2023/12/25 01:47:38;;;;;;;0.60;0.60;;;14.10;37.60;;;;;;10448419;28;20311;-76
2023/12/25 01:52:42;;;;;;;0.60;0.60;;;14.10;37.30;;;;;;10447976;28;20236;-76
2023/12/25 01:57:45;;;;;;;0.70;0.70;;;14.10;37.30;;;;;;10448051;28;20235;-76
2023/12/25 02:02:50;;;;;;;0.73;0.70;;;14.10;37.30;;;;;;10447868;28;20228;-76
2023/12/25 02:07:54;;;;;;;0.60;0.60;;;14.10;37.10;;;;;;10448061;28;20598;-76
2023/12/25 02:13:00;;;;;;;2.67;0.70;;;14.10;37.00;;;;;;10448135;28;20287;-77
2023/12/25 02:18:05;;;;;;;0.70;0.60;;;14.10;36.80;;;;;;10454858;28;20606;-76
2023/12/25 02:23:15;;;;;;;0.73;0.70;;;14.10;36.00;;;;;;10455358;28;20229;-76
2023/12/25 02:28:20;;;;;;;0.60;0.60;;;14.10;35.10;;;;;;10454752;28;20264;-76
2023/12/25 02:33:23;;;;;;;0.63;0.63;;;14.10;36.10;;;;;;10454446;28;20697;-76
2023/12/25 02:38:26;;;;;;;0.70;0.70;;;14.10;36.40;;;;;;10454325;28;20248;-77
2023/12/25 02:43:31;;;;;;;0.73;0.60;;;14.10;36.20;;;;;;10454192;28;20225;-76
2023/12/25 02:48:34;;;;;;;0.67;0.67;;;14.10;35.80;;;;;;10454126;28;20806;-76
2023/12/25 02:53:37;;;;;;;0.70;0.70;;;14.10;36.00;;;;;;10454125;28;20240;-76
2023/12/25 02:58:42;;;;;;;0.70;0.70;;;14.10;35.90;;;;;;10453818;28;20312;-76
2023/12/25 03:03:45;;;;;;;0.77;0.77;;;14.10;35.40;;;;;;10453916;28;20225;-76
2023/12/25 03:08:49;;;;;;;1.27;0.60;;;14.10;34.90;;;;;;10453173;28;20229;-77
2023/12/25 03:13:53;;;;;;;2.10;0.80;;;14.10;35.40;;;;;;10453394;28;20239;-76
2023/12/25 03:18:56;;;;;;;0.70;0.70;;;14.10;34.80;;;;;;10452917;28;20243;-76
2023/12/25 03:24:00;;;;;;;1.00;0.70;;;14.00;35.00;;;;;;10453280;28;20282;-76
2023/12/25 03:29:05;;;;;;;1.40;0.70;;;14.10;35.10;;;;;;10451688;28;20722;-76
2023/12/25 03:34:08;;;;;;;0.70;0.70;;;14.00;34.10;;;;;;10452206;28;20245;-76
2023/12/25 03:39:11;;;;;;;0.60;0.60;;;14.00;34.90;;;;;;10452222;28;20271;-76
2023/12/25 03:44:16;;;;;;;0.70;0.70;;;13.90;34.70;;;;;;10452108;28;20239;-76
2023/12/25 03:49:19;;;;;;;0.80;0.80;;;13.90;34.20;;;;;;10451928;28;20621;-76
2023/12/25 03:54:26;;;;;;;1.90;0.80;;;13.90;34.70;;;;;;10451548;28;20307;-76
2023/12/25 03:59:30;;;;;;;0.83;0.70;;;13.90;34.60;;;;;;10451359;28;20237;-76
2023/12/25 04:04:33;;;;;;;0.90;0.90;;;13.90;34.40;;;;;;10451112;28;20337;-76
2023/12/25 04:09:37;;;;;;;0.70;0.70;;;13.90;34.60;;;;;;10450653;28;20239;-76
2023/12/25 04:14:41;;;;;;;0.70;0.70;;;13.90;34.60;;;;;;10451026;28;20229;-76
2023/12/25 04:19:44;;;;;;;1.00;0.90;;;13.90;34.10;;;;;;10450191;28;20224;-76
2023/12/25 04:24:48;;;;;;;0.70;0.70;;;14.00;34.60;;;;;;10450297;28;20225;-76
2023/12/25 04:29:52;;;;;;;1.50;0.70;;;13.90;34.00;;;;;;10450166;28;20237;-77
2023/12/25 04:34:55;;;;;;;2.33;1.53;;;13.90;33.30;;;;;;10450436;28;20225;-77
2023/12/25 04:39:58;;;;;;;0.87;0.87;;;13.90;33.70;;;;;;10449493;28;20270;-76
2023/12/25 04:45:03;;;;;;;1.10;1.10;;;13.90;33.70;;;;;;10449756;28;20225;-76
2023/12/25 04:50:07;;;;;;;0.80;0.80;;;13.90;33.20;;;;;;10449956;28;20236;-77
2023/12/25 04:55:13;;;;;;;0.80;0.80;;;13.90;33.10;;;;;;10449296;28;20241;-77
2023/12/25 05:00:18;;;;;;;0.67;0.67;;;14.00;32.60;;;;;;10449646;28;20239;-77
2023/12/25 05:05:24;;;;;;;0.73;0.73;;;14.00;32.70;;;;;;10449449;28;20267;-76
2023/12/25 05:10:27;;;;;;;0.70;0.70;;;14.00;32.80;;;;;;10449432;28;20229;-76
2023/12/25 05:15:31;;;;;;;0.70;0.70;;;14.00;33.00;;;;;;10449152;28;20244;-76
2023/12/25 05:20:35;;;;;;;0.80;0.80;;;13.90;32.00;;;;;;10449126;28;20256;-76
2023/12/25 05:25:38;;;;;;;0.70;0.70;;;14.00;32.60;;;;;;10449044;28;20232;-77
2023/12/25 05:30:43;;;;;;;0.80;0.80;;;14.00;32.60;;;;;;10407840;28;20608;-76
2023/12/25 05:35:46;;;;;;;0.80;0.80;;;14.00;32.10;;;;;;10407501;28;20225;-76
2023/12/25 05:40:50;;;;;;;0.70;0.70;;;14.00;32.50;;;;;;10407651;28;20242;-76
2023/12/25 05:45:54;;;;;;;0.80;0.80;;;14.00;32.50;;;;;;10407636;28;20321;-76
2023/12/25 05:50:58;;;;;;;0.60;0.60;;;14.00;31.80;;;;;;10412270;28;20316;-76
2023/12/25 05:56:01;;;;;;;0.93;0.80;;;14.00;32.60;;;;;;10415118;28;20225;-77
2023/12/25 06:01:08;;;;;;;0.70;0.70;;;13.90;32.20;;;;;;10414765;28;20708;-76
2023/12/25 06:06:11;;;;;;;0.70;0.70;;;13.90;31.40;;;;;;10415090;28;20233;-76
2023/12/25 06:11:15;;;;;;;0.80;0.80;;;13.90;31.30;;;;;;10414824;28;20494;-77
2023/12/25 06:16:19;;;;;;;0.93;0.70;;;13.90;31.90;;;;;;10414931;28;20257;-76
2023/12/25 06:21:23;;;;;;;0.93;0.77;;;13.80;31.10;;;;;;10414209;28;20229;-76
2023/12/25 06:26:26;;;;;;;0.80;0.80;;;13.80;31.20;;;;;;10427047;28;20250;-76
2023/12/25 06:31:31;;;;;;;1.30;0.80;;;13.80;31.60;;;;;;10496329;28;20248;-76
2023/12/25 06:36:34;;;;;;;0.97;0.80;;;13.70;31.00;;;;;;10495800;28;20591;-76
2023/12/25 06:41:37;;;;;;;0.70;0.70;;;13.70;31.10;;;;;;10495574;28;20243;-76
2023/12/25 06:46:42;;;;;;;0.80;0.80;;;13.70;31.30;;;;;;10495644;28;20232;-77
2023/12/25 06:51:46;;;;;;;1.63;0.80;;;13.70;31.10;;;;;;10495612;28;20247;-76
2023/12/25 06:56:49;;;;;;;0.80;0.80;;;13.70;31.40;;;;;;10495450;28;20232;-76
2023/12/25 07:01:54;;;;;;;0.80;0.80;;;13.70;31.00;;;;;;10494110;28;20244;-76
2023/12/25 07:06:57;;;;;;;1.13;1.00;;;13.60;30.90;;;;;;10494757;28;20238;-76
2023/12/25 07:12:01;;;;;;;0.80;0.80;;;13.70;31.60;;;;;;10495107;28;20224;-76
2023/12/25 07:17:08;;;;;;;0.90;0.90;;;13.70;31.50;;;;;;10494726;28;20252;-76
2023/12/25 07:22:12;;;;;;;0.83;0.83;;;13.70;31.00;;;;;;10494349;28;20238;-76
2023/12/25 07:27:15;;;;;;;0.80;0.80;;;13.70;31.00;;;;;;10493979;28;20327;-76
2023/12/25 07:32:20;;;;;;;1.00;1.00;;;13.70;31.10;;;;;;10493804;28;20254;-76
2023/12/25 07:37:25;;;;;;;1.13;1.10;;;13.70;31.00;;;;;;10493774;28;20255;-77
2023/12/25 07:42:28;;;;;;;0.80;0.80;;;13.60;31.60;;;;;;10493421;28;20435;-77
2023/12/25 07:47:32;;;;;;;1.03;0.97;;;13.70;31.00;;;;;;10493073;28;20286;-76
2023/12/25 07:52:36;;;;;;;1.20;1.10;;;13.70;31.00;;;;;;10492594;28;20701;-76
2023/12/25 07:57:39;;;;;;;1.10;1.00;;;13.70;31.00;;;;;;10492694;28;20228;-76
2023/12/25 08:02:44;;;;;;;0.70;0.70;;;13.70;31.00;;;;;;10492563;28;20232;-76
2023/12/25 08:07:48;;;;;;;1.67;1.10;;;13.70;31.00;;;;;;10492177;28;20239;-76
2023/12/25 08:12:51;;;;;;;0.80;0.80;;;13.70;31.00;;;;;;10492213;28;20232;-76
2023/12/25 08:17:56;;;;;;;0.80;0.80;;;13.70;31.00;;;;;;10492164;28;20805;-76
2023/12/25 08:22:59;;;;;;;0.80;0.80;;;13.80;31.10;;;;;;10491824;28;20819;-76
2023/12/25 08:28:03;;;;;;;2.30;1.00;;;13.80;31.10;;;;;;10491212;28;20239;-76
2023/12/25 08:33:08;;;;;;;1.10;1.00;;;13.80;31.10;;;;;;10491421;28;20606;-76
2023/12/25 08:38:11;;;;;;;0.90;0.90;;;13.80;30.50;;;;;;10491351;28;20318;-77
2023/12/25 08:43:14;;;;;;;1.07;0.90;;;13.90;31.10;;;;;;10490958;28;20235;-76
2023/12/25 08:48:19;;;;;;;1.27;1.17;;;13.90;30.50;;;;;;10491124;28;20728;-76
2023/12/25 08:53:22;;;;;;;0.90;0.90;;;13.90;30.40;;;;;;10490759;28;20315;-76
2023/12/25 08:58:26;;;;;;;0.90;0.90;;;13.90;30.70;;;;;;10491058;28;20232;-76
2023/12/25 09:03:31;;;;;;;0.80;0.80;;;14.00;30.40;;;;;;10490704;28;20232;-76
2023/12/25 09:08:34;;;;;;;1.10;1.00;;;14.00;30.00;;;;;;10490079;28;20232;-76
2023/12/25 09:13:37;;;;;;;1.13;1.03;;;14.10;30.10;;;;;;10489734;28;20232;-77
2023/12/25 09:18:42;;;;;;;1.00;1.00;;;14.10;29.90;;;;;;10489822;28;20282;-76
2023/12/25 09:23:45;;;;;;;1.17;1.10;;;14.10;29.70;;;;;;10489562;28;20228;-76
2023/12/25 09:28:52;;;;;;;0.97;0.97;;;14.10;29.70;;;;;;10489496;28;20238;-76
2023/12/25 09:33:57;;;;;;;0.90;0.90;;;14.20;29.10;;;;;;10488874;28;20232;-75
2023/12/25 09:39:00;;;;;;;1.13;1.00;;;14.20;29.20;;;;;;10489022;28;20235;-75
2023/12/25 09:44:04;;;;;;;0.97;0.97;;;14.20;29.60;;;;;;10488928;28;20674;-75
2023/12/25 09:49:09;;;;;;;2.13;0.97;;;14.20;29.70;;;;;;10488680;28;20327;-75
2023/12/25 09:54:12;;;;;;;1.00;1.00;;;14.20;29.10;;;;;;10489008;28;20290;-75
2023/12/25 09:59:16;;;;;;;1.37;1.00;;;14.20;29.50;;;;;;10488935;28;20661;-75
2023/12/25 10:04:21;;;;;;;1.10;1.00;;;14.20;29.30;;;;;;10488666;28;20240;-75
2023/12/25 10:09:24;;;;;;;1.63;0.90;;;14.20;28.80;;;;;;10488647;28;20259;-76
2023/12/25 10:14:29;;;;;;;0.97;0.97;;;14.20;28.80;;;;;;10488687;28;20255;-75
2023/12/25 10:19:36;;;;;;;1.00;0.80;;;14.30;28.70;;;;;;10488591;28;20236;-75
2023/12/25 10:24:39;;;;;;;1.00;1.00;;;14.30;28.10;;;;;;10488468;28;20236;-76
2023/12/25 10:29:45;;;;;;;0.97;0.97;;;14.30;28.50;;;;;;10487970;28;20239;-76
2023/12/25 10:34:49;;;;;;;1.23;1.10;;;14.30;27.60;;;;;;10488292;28;20263;-75
2023/12/25 10:39:52;;;;;;;1.20;1.10;;;14.30;28.20;;;;;;10495396;28;20653;-76
2023/12/25 10:44:56;;;;;;;1.20;1.10;;;14.30;28.50;;;;;;10495301;28;20591;-75
2023/12/25 10:50:03;;;;;;;0.80;0.80;;;14.40;28.20;;;;;;10495192;28;20260;-76
2023/12/25 10:55:07;;;;;;;2.40;2.00;;;14.40;27.60;;;;;;10494400;28;20706;-76
2023/12/25 11:00:12;;;;;;;1.77;1.67;;;14.40;28.20;;;;;;10494705;28;20238;-76
2023/12/25 11:05:17;;;;;;;1.70;1.60;;;14.50;28.20;;;;;;10494138;28;20302;-75
2023/12/25 11:10:20;;;;;;;1.50;1.40;;;14.50;27.60;;;;;;10494126;28;20804;-75
2023/12/25 11:15:24;;;;;;;1.50;1.37;;;14.50;27.80;;;;;;10494095;28;20311;-76
2023/12/25 11:20:32;;;;;;;1.53;1.00;;;14.50;27.70;;;;;;10494100;28;20318;-75
2023/12/25 11:25:37;;;;;;;1.77;1.17;;;14.50;26.40;;;;;;10493881;28;20711;-76
2023/12/25 11:30:40;;;;;;;0.93;0.93;;;14.60;27.40;;;;;;10493697;28;20370;-76
2023/12/25 11:35:46;;;;;;;0.97;0.97;;;14.70;27.90;;;;;;10493452;28;20274;-76
2023/12/25 11:40:51;;;;;;;1.03;0.93;;;14.70;27.30;;;;;;10493452;28;20232;-76
2023/12/25 11:45:54;;;;;;;1.00;0.90;;;14.90;27.90;;;;;;10492662;28;20300;-76
2023/12/25 11:51:18;;;;;;;0.93;0.93;;;15.00;27.60;;;;;;10492950;28;20258;-76
2023/12/25 11:56:21;;;;;;;0.90;0.90;;;15.20;27.00;;;;;;10493097;28;20319;-76
2023/12/25 12:01:25;;;;;;;0.97;0.97;;;15.30;27.10;;;;;;10492685;28;20707;-76
2023/12/25 12:06:30;;;;;;;1.50;1.30;;;15.40;26.80;;;;;;10492456;28;20252;-76
2023/12/25 12:11:33;;;;;;;1.93;1.30;;;15.40;26.80;;;;;;10492234;28;20236;-76
2023/12/25 12:16:36;;;;;;;1.30;1.20;;;15.40;26.90;;;;;;10491828;28;20232;-76
2023/12/25 12:21:41;;;;;;;0.93;0.90;;;15.40;27.00;;;;;;10491834;28;20293;-76
2023/12/25 12:26:45;;;;;;;0.80;0.80;;;15.40;26.80;;;;;;10491395;28;20232;-76
2023/12/25 12:31:48;;;;;;;1.20;1.00;;;15.40;26.90;;;;;;10491416;28;20246;-76
2023/12/25 12:36:59;;;;;;;1.00;1.00;;;15.40;27.50;;;;;;10491178;28;20232;-76
2023/12/25 12:42:09;;;;;;;0.90;0.90;;;15.40;26.20;;;;;;10490640;28;20270;-76
2023/12/25 12:47:13;;;;;;;0.73;0.73;;;15.40;25.80;;;;;;10490695;28;20236;-75
2023/12/25 12:52:17;;;;;;;0.80;0.80;;;15.40;27.20;;;;;;10489679;28;20244;-74
2023/12/25 12:57:23;;;;;;;0.70;0.70;;;15.40;26.90;;;;;;10489137;28;20268;-74
2023/12/25 13:02:27;;;;;;;0.63;0.63;;;15.40;27.10;;;;;;10489063;28;20235;-75
2023/12/25 13:07:32;;;;;;;0.70;0.70;;;15.40;27.10;;;;;;10489773;28;20240;-76
2023/12/25 13:12:35;;;;;;;0.93;0.90;;;15.40;26.90;;;;;;10489552;28;20609;-76
2023/12/25 13:17:38;;;;;;;0.70;0.70;;;15.40;27.50;;;;;;10489239;28;20657;-75
2023/12/25 13:22:43;;;;;;;0.80;0.80;;;15.40;27.60;;;;;;10489224;28;20785;-75
2023/12/25 13:27:47;;;;;;;0.90;0.90;;;15.30;28.10;;;;;;10488794;28;20898;-75
2023/12/25 13:32:50;;;;;;;0.83;0.83;;;15.30;27.70;;;;;;10489264;28;20298;-75
2023/12/25 13:37:55;;;;;;;0.80;0.80;;;15.30;28.20;;;;;;10488480;28;20286;-75
2023/12/25 13:42:58;;;;;;;0.80;0.80;;;15.40;27.60;;;;;;10489096;28;20232;-75
2023/12/25 13:48:02;;;;;;;1.07;1.00;;;15.30;27.70;;;;;;10487585;28;20297;-75
2023/12/25 13:53:07;;;;;;;1.47;0.90;;;15.30;27.80;;;;;;10487766;28;20676;-76
2023/12/25 13:58:10;;;;;;;1.03;1.00;;;15.30;27.50;;;;;;10487116;28;20267;-75
2023/12/25 14:03:14;;;;;;;0.80;0.80;;;15.30;27.70;;;;;;10488523;28;20664;-76
2023/12/25 14:08:19;;;;;;;0.80;0.80;;;15.20;27.80;;;;;;10488474;28;20247;-75
2023/12/25 14:13:23;;;;;;;1.40;1.30;;;15.20;27.90;;;;;;10495667;28;20556;-76
2023/12/25 14:18:26;;;;;;;1.20;1.10;;;15.10;28.20;;;;;;10496182;28;20402;-76
2023/12/25 14:23:31;;;;;;;0.83;0.83;;;15.00;28.30;;;;;;10495613;28;20228;-75
2023/12/25 14:28:35;;;;;;;0.83;0.80;;;15.10;28.50;;;;;;10495822;28;20699;-76
2023/12/25 14:33:43;;;;;;;1.13;1.03;;;15.10;28.50;;;;;;10495601;28;20703;-76
2023/12/25 14:38:50;;;;;;;1.43;0.90;;;15.10;28.50;;;;;;10495658;28;20232;-75
2023/12/25 14:43:54;;;;;;;0.90;0.90;;;15.10;28.50;;;;;;10495337;28;20296;-75
2023/12/25 14:48:57;;;;;;;0.90;0.90;;;15.10;28.60;;;;;;10494940;28;20248;-75
2023/12/25 14:54:02;;;;;;;0.70;0.70;;;15.10;28.60;;;;;;10494968;28;20259;-75
2023/12/25 14:59:05;;;;;;;0.80;0.80;;;15.10;28.50;;;;;;10494507;28;20682;-75
2023/12/25 15:04:09;;;;;;;0.70;0.70;;;15.10;28.80;;;;;;10494602;28;20224;-75
2023/12/25 15:09:14;;;;;;;1.17;0.90;;;15.10;28.80;;;;;;10494711;28;20242;-76
2023/12/25 15:14:17;;;;;;;1.27;0.90;;;15.10;28.90;;;;;;10494424;28;20236;-75
2023/12/25 15:19:21;;;;;;;1.00;0.90;;;15.00;29.00;;;;;;10494161;28;20282;-75
2023/12/25 15:24:27;;;;;;;0.80;0.80;;;15.00;28.90;;;;;;10493239;28;20228;-75
2023/12/25 15:29:30;;;;;;;0.90;0.90;;;15.00;28.80;;;;;;10493422;28;20236;-75
2023/12/25 15:34:33;;;;;;;0.97;0.87;;;14.90;28.90;;;;;;10493707;28;20228;-75
2023/12/25 15:39:38;;;;;;;1.10;1.00;;;14.90;28.90;;;;;;10492616;28;20328;-75
2023/12/25 15:44:42;;;;;;;0.83;0.80;;;14.90;28.90;;;;;;10492966;28;20762;-75
2023/12/25 15:49:47;;;;;;;1.00;0.80;;;14.90;29.00;;;;;;10492613;28;20737;-75
2023/12/25 15:54:52;;;;;;;0.97;0.90;;;14.90;29.00;;;;;;10492568;28;20240;-76
2023/12/25 15:59:55;;;;;;;1.33;0.90;;;14.90;28.80;;;;;;10492086;28;20232;-75
2023/12/25 16:04:59;;;;;;;1.10;1.00;;;14.90;29.00;;;;;;10492239;28;20220;-75
2023/12/25 16:10:08;;;;;;;1.57;1.10;;;14.90;28.80;;;;;;10492063;28;20605;-75
2023/12/25 16:15:11;;;;;;;0.97;0.90;;;14.90;28.70;;;;;;10491948;28;20581;-75
2023/12/25 16:20:15;;;;;;;1.50;1.40;;;14.80;28.70;;;;;;10491412;28;20612;-75
2023/12/25 16:25:19;;;;;;;1.17;1.00;;;14.90;28.70;;;;;;10491716;28;20267;-75
2023/12/25 16:30:23;;;;;;;1.00;0.90;;;14.80;28.40;;;;;;10490798;28;20733;-75
2023/12/25 16:35:28;;;;;;;1.10;1.00;;;14.80;28.60;;;;;;10491148;28;20271;-75
2023/12/25 16:40:32;;;;;;;0.87;0.87;;;14.80;28.50;;;;;;10490930;28;20229;-75
2023/12/25 16:45:36;;;;;;;2.07;1.10;;;14.70;28.30;;;;;;10490929;28;20254;-75
2023/12/25 16:50:39;;;;;;;1.27;1.17;;;14.60;28.50;;;;;;10490324;28;20236;-75
2023/12/25 16:55:44;;;;;;;0.90;0.90;;;14.60;28.50;;;;;;10490091;28;20619;-75
2023/12/25 17:00:47;;;;;;;1.20;1.10;;;14.60;28.30;;;;;;10489699;28;20311;-75
2023/12/25 17:05:50;;;;;;;1.00;1.00;;;14.60;28.40;;;;;;10490070;28;20662;-75
2023/12/25 17:10:55;;;;;;;1.67;1.10;;;14.60;28.40;;;;;;10489554;28;20239;-75
2023/12/25 17:15:58;;;;;;;1.10;1.00;;;14.60;28.30;;;;;;10489803;28;20228;-75
2023/12/25 17:21:06;;;;;;;1.27;1.17;;;14.50;28.40;;;;;;10488851;28;20228;-75
2023/12/25 17:26:11;;;;;;;0.97;0.97;;;14.50;28.20;;;;;;10488750;28;20738;-75
2023/12/25 17:31:15;;;;;;;0.97;0.97;;;14.40;28.20;;;;;;10488880;28;20252;-75
2023/12/25 17:36:18;;;;;;;1.20;1.07;;;14.30;28.30;;;;;;10488836;28;20298;-75
2023/12/25 17:41:23;;;;;;;1.53;1.10;;;14.30;28.50;;;;;;10489253;28;21654;-75
2023/12/25 17:46:26;;;;;;;1.10;1.00;;;14.20;28.50;;;;;;10493190;28;20314;-75
2023/12/25 17:51:29;;;;;;;1.70;0.97;;;14.20;28.50;;;;;;10497030;28;20278;-75
2023/12/25 17:56:34;;;;;;;0.93;0.93;;;14.10;28.60;;;;;;10496685;28;20710;-75
2023/12/25 18:01:37;;;;;;;1.20;1.10;;;14.10;28.40;;;;;;10496433;28;20791;-75
2023/12/25 18:06:40;;;;;;;1.07;1.00;;;14.10;28.50;;;;;;10494382;28;20779;-75
2023/12/25 18:11:45;;;;;;;1.20;1.10;;;14.00;28.50;;;;;;10496354;28;20220;-75
2023/12/25 18:16:48;;;;;;;1.57;1.17;;;14.00;28.40;;;;;;10495951;28;20251;-75
2023/12/25 18:21:51;;;;;;;0.97;0.90;;;14.00;28.50;;;;;;10495808;28;20662;-75
2023/12/25 18:26:58;;;;;;;1.27;1.10;;;14.00;28.60;;;;;;10495312;28;20307;-75
2023/12/25 18:32:02;;;;;;;1.20;1.10;;;13.90;28.50;;;;;;10495635;28;20235;-75
2023/12/25 18:37:06;;;;;;;1.40;1.30;;;13.90;28.70;;;;;;10494859;28;20239;-75
2023/12/25 18:42:11;;;;;;;1.27;1.20;;;13.90;28.60;;;;;;10494812;28;20286;-74
2023/12/25 18:47:14;;;;;;;1.50;1.40;;;14.00;28.50;;;;;;10495087;28;20236;-75
2023/12/25 18:52:17;;;;;;;3.10;2.00;;;14.00;28.60;;;;;;10494737;28;20262;-75
2023/12/25 18:57:22;;;;;;;1.60;1.50;;;14.00;28.60;;;;;;10493388;28;20236;-75
2023/12/25 19:02:26;;;;;;;1.60;1.30;;;14.00;28.60;;;;;;10494440;28;20263;-75
2023/12/25 19:07:29;;;;;;;1.40;1.30;;;14.00;28.70;;;;;;10493782;28;20315;-75
2023/12/25 19:12:34;;;;;;;1.23;1.13;;;14.00;28.70;;;;;;10493926;28;20220;-75
2023/12/25 19:17:37;;;;;;;1.70;1.13;;;14.00;28.60;;;;;;10493453;28;20236;-75
2023/12/25 19:22:40;;;;;;;2.20;2.00;;;14.00;28.60;;;;;;10493228;28;20232;-75
2023/12/25 19:27:45;;;;;;;2.30;2.00;;;14.00;28.60;;;;;;10493145;28;20232;-75
2023/12/25 19:32:49;;;;;;;1.60;1.50;;;14.00;28.60;;;;;;10493225;28;20247;-75
2023/12/25 19:37:53;;;;;;;1.50;1.40;;;13.90;28.70;;;;;;10492729;28;20324;-75
2023/12/25 19:42:58;;;;;;;1.90;1.70;;;13.80;28.80;;;;;;10492929;28;20228;-75
2023/12/25 19:48:01;;;;;;;2.53;1.70;;;13.80;28.60;;;;;;10492411;28;20243;-75
2023/12/25 19:53:05;;;;;;;1.83;1.73;;;13.80;28.80;;;;;;10492323;28;20244;-75
2023/12/25 19:58:10;;;;;;;1.77;1.67;;;13.70;28.80;;;;;;10491854;28;20788;-75
2023/12/25 20:03:14;;;;;;;1.57;1.47;;;13.70;28.70;;;;;;10492315;28;20297;-75
2023/12/25 20:08:18;;;;;;;1.63;1.40;;;13.70;28.70;;;;;;10491404;28;20243;-75
2023/12/25 20:13:23;;;;;;;1.43;1.30;;;13.70;28.70;;;;;;10491415;28;20239;-75
2023/12/25 20:18:26;;;;;;;1.60;1.50;;;13.80;28.50;;;;;;10491266;28;20289;-75
2023/12/25 20:23:30;;;;;;;1.80;1.67;;;13.80;28.70;;;;;;10491354;28;20232;-75
2023/12/25 20:28:34;;;;;;;2.20;2.00;;;13.70;28.60;;;;;;10490599;28;20239;-75
2023/12/25 20:33:42;;;;;;;1.77;1.60;;;13.70;28.60;;;;;;10490671;28;20274;-75
2023/12/25 20:38:46;;;;;;;3.07;1.53;;;13.60;28.50;;;;;;10490226;28;20229;-75
2023/12/25 20:43:52;;;;;;;1.47;1.37;;;13.50;28.70;;;;;;10490162;28;20224;-75
2023/12/25 20:48:56;;;;;;;1.50;1.40;;;13.40;28.70;;;;;;10489964;28;20236;-75
2023/12/25 20:54:03;;;;;;;1.47;1.37;;;13.40;28.80;;;;;;10489883;28;20220;-75
2023/12/25 20:59:07;;;;;;;1.67;1.20;;;13.30;28.80;;;;;;10489653;28;20239;-75
2023/12/25 21:04:11;;;;;;;1.30;1.20;;;13.30;28.80;;;;;;10489567;28;20254;-74
2023/12/25 21:09:14;;;;;;;1.30;1.20;;;13.30;29.40;;;;;;10489575;28;20240;-75
2023/12/25 21:14:19;;;;;;;1.03;1.03;;;13.30;28.80;;;;;;10489318;28;20231;-75
2023/12/25 21:19:22;;;;;;;1.60;1.03;;;13.30;28.60;;;;;;10488757;28;20236;-75
2023/12/25 21:24:26;;;;;;;1.30;1.20;;;13.30;28.70;;;;;;10489517;28;20315;-75
2023/12/25 21:29:31;;;;;;;1.53;1.23;;;13.30;28.50;;;;;;10488908;28;20228;-74
2023/12/25 21:34:35;;;;;;;1.33;1.10;;;13.30;28.40;;;;;;10489142;28;20883;-75
2023/12/25 21:39:38;;;;;;;1.83;1.10;;;13.30;28.30;;;;;;10488784;28;20239;-75
2023/12/25 21:44:43;;;;;;;2.30;1.00;;;13.30;28.30;;;;;;10488620;28;20798;-75
2023/12/25 21:49:47;;;;;;;2.33;1.00;;;13.30;28.10;;;;;;10488550;28;20228;-75
2023/12/25 21:54:50;;;;;;;1.80;1.30;;;13.40;28.10;;;;;;10488614;28;20246;-74
2023/12/25 21:59:55;;;;;;;1.03;1.00;;;13.40;28.00;;;;;;10488116;28;20243;-75
2023/12/25 22:04:58;;;;;;;1.90;1.30;;;13.40;27.80;;;;;;10488399;28;20239;-75
2023/12/25 22:10:01;;;;;;;1.70;1.10;;;13.40;27.70;;;;;;10487950;28;20243;-75
2023/12/25 22:15:07;;;;;;;1.30;1.20;;;13.40;27.40;;;;;;10487954;28;20610;-76
2023/12/25 22:20:11;;;;;;;1.13;1.00;;;13.40;27.40;;;;;;10488174;28;20243;-75
2023/12/25 22:25:14;;;;;;;1.20;1.10;;;13.40;27.50;;;;;;10487532;28;20264;-75
2023/12/25 22:30:19;;;;;;;1.10;1.00;;;13.40;27.50;;;;;;10488467;28;20236;-75
2023/12/25 22:35:23;;;;;;;1.20;1.10;;;13.40;27.20;;;;;;10495395;28;20228;-75
2023/12/25 22:40:26;;;;;;;0.90;0.90;;;13.40;27.20;;;;;;10494924;28;20716;-75
2023/12/25 22:45:31;;;;;;;1.10;1.00;;;13.40;27.40;;;;;;10495197;28;20326;-75
2023/12/25 22:50:34;;;;;;;1.70;1.40;;;13.30;26.90;;;;;;10494398;28;20252;-75
2023/12/25 22:55:37;;;;;;;1.20;1.10;;;13.30;27.10;;;;;;10494402;28;20600;-75
2023/12/25 23:00:42;;;;;;;1.20;1.03;;;13.20;27.10;;;;;;10494329;28;20277;-75
2023/12/25 23:05:45;;;;;;;1.23;1.13;;;13.10;26.90;;;;;;10493883;28;20710;-75
2023/12/25 23:10:49;;;;;;;1.90;1.00;;;13.00;27.00;;;;;;10493872;28;20235;-76
2023/12/25 23:15:54;;;;;;;1.10;1.00;;;12.90;27.00;;;;;;10493636;28;20277;-74
2023/12/25 23:20:58;;;;;;;0.93;0.90;;;12.80;27.00;;;;;;10493655;28;20248;-75
2023/12/25 23:26:01;;;;;;;1.20;1.10;;;12.80;27.20;;;;;;10493166;28;20236;-74
2023/12/25 23:31:06;;;;;;;1.10;1.00;;;12.70;27.20;;;;;;10493164;28;20315;-74
2023/12/25 23:36:09;;;;;;;1.27;1.10;;;12.70;27.00;;;;;;10492882;28;20721;-75
2023/12/25 23:41:13;;;;;;;2.13;1.20;;;12.70;27.20;;;;;;10492959;28;20244;-75
2023/12/25 23:46:17;;;;;;;1.23;1.10;;;12.60;27.20;;;;;;10491774;28;20327;-75
2023/12/25 23:51:23;;;;;;;1.60;1.13;;;12.70;27.00;;;;;;10492539;28;20816;-75
2023/12/25 23:56:26;;;;;;;1.17;1.00;;;12.60;27.10;;;;;;10492174;28;20374;-75
